sensor_id;sensor_type;location;lat;lon;timestamp;P1;durP1;ratioP1;P2;durP2;ratioP2
67053;SDS011;53960;51.826;5.850;2024-02-26T00:01:48;7.57;;;3.00;;
67053;SDS011;53960;51.826;5.850;2024-02-26T00:04:13;7.83;;;2.73;;
67053;SDS011;53960;51.826;5.850;2024-02-26T00:06:38;7.83;;;3.00;;
67053;SDS011;53960;51.826;5.850;2024-02-26T00:09:07;7.18;;;3.08;;
67053;SDS011;53960;51.826;5.850;2024-02-26T00:11:33;8.48;;;3.03;;
67053;SDS011;53960;51.826;5.850;2024-02-26T00:14:00;6.72;;;2.60;;
67053;SDS011;53960;51.826;5.850;2024-02-26T00:16:25;8.23;;;3.13;;
67053;SDS011;53960;51.826;5.850;2024-02-26T00:18:50;7.00;;;2.93;;
67053;SDS011;53960;51.826;5.850;2024-02-26T00:21:16;8.83;;;2.70;;
67053;SDS011;53960;51.826;5.850;2024-02-26T00:23:41;7.20;;;2.90;;
67053;SDS011;53960;51.826;5.850;2024-02-26T00:26:06;8.65;;;3.20;;
67053;SDS011;53960;51.826;5.850;2024-02-26T00:28:32;7.78;;;2.90;;
67053;SDS011;53960;51.826;5.850;2024-02-26T00:30:58;7.63;;;3.30;;
67053;SDS011;53960;51.826;5.850;2024-02-26T00:33:23;7.47;;;2.87;;
67053;SDS011;53960;51.826;5.850;2024-02-26T00:35:48;8.67;;;2.93;;
67053;SDS011;53960;51.826;5.850;2024-02-26T00:38:14;7.50;;;2.90;;
67053;SDS011;53960;51.826;5.850;2024-02-26T00:40:40;8.25;;;2.92;;
67053;SDS011;53960;51.826;5.850;2024-02-26T00:43:05;8.37;;;3.20;;
67053;SDS011;53960;51.826;5.850;2024-02-26T00:45:31;7.47;;;3.00;;
67053;SDS011;53960;51.826;5.850;2024-02-26T00:47:57;7.00;;;2.50;;
67053;SDS011;53960;51.826;5.850;2024-02-26T00:50:22;7.45;;;2.80;;
67053;SDS011;53960;51.826;5.850;2024-02-26T00:52:48;6.87;;;2.43;;
67053;SDS011;53960;51.826;5.850;2024-02-26T00:55:13;7.43;;;2.80;;
67053;SDS011;53960;51.826;5.850;2024-02-26T00:57:39;7.43;;;2.33;;
67053;SDS011;53960;51.826;5.850;2024-02-26T01:00:05;7.47;;;2.42;;
67053;SDS011;53960;51.826;5.850;2024-02-26T01:02:33;6.70;;;2.08;;
67053;SDS011;53960;51.826;5.850;2024-02-26T01:04:59;8.03;;;2.60;;
67053;SDS011;53960;51.826;5.850;2024-02-26T01:07:24;8.45;;;2.47;;
67053;SDS011;53960;51.826;5.850;2024-02-26T01:09:50;8.00;;;2.53;;
67053;SDS011;53960;51.826;5.850;2024-02-26T01:12:15;6.93;;;2.13;;
67053;SDS011;53960;51.826;5.850;2024-02-26T01:14:40;6.93;;;2.60;;
67053;SDS011;53960;51.826;5.850;2024-02-26T01:17:06;6.90;;;2.20;;
67053;SDS011;53960;51.826;5.850;2024-02-26T01:19:31;7.90;;;2.40;;
67053;SDS011;53960;51.826;5.850;2024-02-26T01:21:56;8.00;;;2.60;;
67053;SDS011;53960;51.826;5.850;2024-02-26T01:24:22;6.93;;;2.43;;
67053;SDS011;53960;51.826;5.850;2024-02-26T01:26:47;6.57;;;2.20;;
67053;SDS011;53960;51.826;5.850;2024-02-26T01:29:12;6.37;;;2.43;;
67053;SDS011;53960;51.826;5.850;2024-02-26T01:31:37;7.47;;;2.40;;
67053;SDS011;53960;51.826;5.850;2024-02-26T01:34:03;7.43;;;2.70;;
67053;SDS011;53960;51.826;5.850;2024-02-26T01:36:28;7.60;;;2.80;;
67053;SDS011;53960;51.826;5.850;2024-02-26T01:38:53;9.23;;;2.90;;
67053;SDS011;53960;51.826;5.850;2024-02-26T01:41:19;7.03;;;2.37;;
67053;SDS011;53960;51.826;5.850;2024-02-26T01:43:44;6.85;;;2.40;;
67053;SDS011;53960;51.826;5.850;2024-02-26T01:46:11;7.93;;;2.53;;
67053;SDS011;53960;51.826;5.850;2024-02-26T01:48:41;6.97;;;2.40;;
67053;SDS011;53960;51.826;5.850;2024-02-26T01:51:08;7.00;;;2.80;;
67053;SDS011;53960;51.826;5.850;2024-02-26T01:53:34;8.65;;;2.60;;
67053;SDS011;53960;51.826;5.850;2024-02-26T01:56:00;8.33;;;2.57;;
67053;SDS011;53960;51.826;5.850;2024-02-26T01:58:26;7.30;;;2.80;;
67053;SDS011;53960;51.826;5.850;2024-02-26T02:00:51;7.07;;;2.63;;
67053;SDS011;53960;51.826;5.850;2024-02-26T02:03:17;7.70;;;2.90;;
67053;SDS011;53960;51.826;5.850;2024-02-26T02:05:42;7.83;;;2.97;;
67053;SDS011;53960;51.826;5.850;2024-02-26T02:08:09;8.87;;;3.07;;
67053;SDS011;53960;51.826;5.850;2024-02-26T02:10:36;7.88;;;2.90;;
67053;SDS011;53960;51.826;5.850;2024-02-26T02:13:03;7.43;;;2.92;;
67053;SDS011;53960;51.826;5.850;2024-02-26T02:15:28;7.10;;;2.70;;
67053;SDS011;53960;51.826;5.850;2024-02-26T02:17:54;7.20;;;3.00;;
67053;SDS011;53960;51.826;5.850;2024-02-26T02:20:19;8.57;;;3.00;;
67053;SDS011;53960;51.826;5.850;2024-02-26T02:22:49;7.60;;;2.97;;
67053;SDS011;53960;51.826;5.850;2024-02-26T02:25:14;7.30;;;2.93;;
67053;SDS011;53960;51.826;5.850;2024-02-26T02:27:40;7.20;;;3.00;;
67053;SDS011;53960;51.826;5.850;2024-02-26T02:30:07;8.63;;;3.35;;
67053;SDS011;53960;51.826;5.850;2024-02-26T02:32:33;7.38;;;2.92;;
67053;SDS011;53960;51.826;5.850;2024-02-26T02:34:59;7.40;;;3.10;;
67053;SDS011;53960;51.826;5.850;2024-02-26T02:37:24;7.28;;;2.80;;
67053;SDS011;53960;51.826;5.850;2024-02-26T02:39:49;7.40;;;2.70;;
67053;SDS011;53960;51.826;5.850;2024-02-26T02:42:15;8.47;;;2.83;;
67053;SDS011;53960;51.826;5.850;2024-02-26T02:44:40;8.17;;;3.17;;
67053;SDS011;53960;51.826;5.850;2024-02-26T02:47:05;6.87;;;2.67;;
67053;SDS011;53960;51.826;5.850;2024-02-26T02:49:31;7.33;;;2.60;;
67053;SDS011;53960;51.826;5.850;2024-02-26T02:51:56;7.50;;;2.93;;
67053;SDS011;53960;51.826;5.850;2024-02-26T02:54:22;7.22;;;3.00;;
67053;SDS011;53960;51.826;5.850;2024-02-26T02:56:48;7.97;;;2.93;;
67053;SDS011;53960;51.826;5.850;2024-02-26T02:59:13;8.07;;;3.10;;
67053;SDS011;53960;51.826;5.850;2024-02-26T03:01:38;7.80;;;3.00;;
67053;SDS011;53960;51.826;5.850;2024-02-26T03:04:04;7.87;;;3.20;;
67053;SDS011;53960;51.826;5.850;2024-02-26T03:06:29;8.63;;;2.80;;
67053;SDS011;53960;51.826;5.850;2024-02-26T03:08:54;8.87;;;3.30;;
67053;SDS011;53960;51.826;5.850;2024-02-26T03:11:20;7.43;;;2.60;;
67053;SDS011;53960;51.826;5.850;2024-02-26T03:13:45;7.75;;;3.22;;
67053;SDS011;53960;51.826;5.850;2024-02-26T03:16:11;7.37;;;2.93;;
67053;SDS011;53960;51.826;5.850;2024-02-26T03:18:38;7.40;;;3.10;;
67053;SDS011;53960;51.826;5.850;2024-02-26T03:21:04;7.95;;;3.03;;
67053;SDS011;53960;51.826;5.850;2024-02-26T03:23:29;7.77;;;2.73;;
67053;SDS011;53960;51.826;5.850;2024-02-26T03:25:57;7.35;;;2.67;;
67053;SDS011;53960;51.826;5.850;2024-02-26T03:28:23;7.32;;;2.90;;
67053;SDS011;53960;51.826;5.850;2024-02-26T03:30:48;7.17;;;2.57;;
67053;SDS011;53960;51.826;5.850;2024-02-26T03:33:13;8.13;;;2.70;;
67053;SDS011;53960;51.826;5.850;2024-02-26T03:35:38;7.70;;;2.97;;
67053;SDS011;53960;51.826;5.850;2024-02-26T03:38:04;7.20;;;2.70;;
67053;SDS011;53960;51.826;5.850;2024-02-26T03:40:29;6.10;;;2.20;;
67053;SDS011;53960;51.826;5.850;2024-02-26T03:42:54;7.93;;;2.70;;
67053;SDS011;53960;51.826;5.850;2024-02-26T03:45:22;6.93;;;2.63;;
67053;SDS011;53960;51.826;5.850;2024-02-26T03:47:47;6.87;;;2.50;;
67053;SDS011;53960;51.826;5.850;2024-02-26T03:50:13;7.20;;;2.40;;
67053;SDS011;53960;51.826;5.850;2024-02-26T03:52:38;7.67;;;2.40;;
67053;SDS011;53960;51.826;5.850;2024-02-26T03:55:03;7.40;;;2.33;;
67053;SDS011;53960;51.826;5.850;2024-02-26T03:57:29;6.90;;;2.60;;
67053;SDS011;53960;51.826;5.850;2024-02-26T03:59:54;7.67;;;2.70;;
67053;SDS011;53960;51.826;5.850;2024-02-26T04:02:20;7.00;;;2.83;;
67053;SDS011;53960;51.826;5.850;2024-02-26T04:04:45;7.38;;;2.70;;
67053;SDS011;53960;51.826;5.850;2024-02-26T04:07:11;6.60;;;2.67;;
67053;SDS011;53960;51.826;5.850;2024-02-26T04:09:38;7.97;;;2.75;;
67053;SDS011;53960;51.826;5.850;2024-02-26T04:12:03;6.40;;;2.20;;
67053;SDS011;53960;51.826;5.850;2024-02-26T04:14:29;8.35;;;2.80;;
67053;SDS011;53960;51.826;5.850;2024-02-26T04:16:54;7.60;;;3.00;;
67053;SDS011;53960;51.826;5.850;2024-02-26T04:19:19;7.73;;;2.73;;
67053;SDS011;53960;51.826;5.850;2024-02-26T04:21:45;8.03;;;3.00;;
67053;SDS011;53960;51.826;5.850;2024-02-26T04:24:10;7.43;;;2.72;;
67053;SDS011;53960;51.826;5.850;2024-02-26T04:26:36;7.67;;;2.70;;
67053;SDS011;53960;51.826;5.850;2024-02-26T04:29:02;7.05;;;2.80;;
67053;SDS011;53960;51.826;5.850;2024-02-26T04:31:27;7.53;;;2.77;;
67053;SDS011;53960;51.826;5.850;2024-02-26T04:33:52;8.23;;;2.87;;
67053;SDS011;53960;51.826;5.850;2024-02-26T04:36:18;8.30;;;3.30;;
67053;SDS011;53960;51.826;5.850;2024-02-26T04:38:43;9.17;;;3.23;;
67053;SDS011;53960;51.826;5.850;2024-02-26T04:41:09;8.48;;;3.33;;
67053;SDS011;53960;51.826;5.850;2024-02-26T04:43:35;8.23;;;3.53;;
67053;SDS011;53960;51.826;5.850;2024-02-26T04:46:06;9.73;;;3.50;;
67053;SDS011;53960;51.826;5.850;2024-02-26T04:48:34;9.10;;;3.70;;
67053;SDS011;53960;51.826;5.850;2024-02-26T04:51:00;8.73;;;3.37;;
67053;SDS011;53960;51.826;5.850;2024-02-26T04:53:26;8.57;;;3.58;;
67053;SDS011;53960;51.826;5.850;2024-02-26T04:55:52;9.60;;;4.03;;
67053;SDS011;53960;51.826;5.850;2024-02-26T04:58:17;10.13;;;4.03;;
67053;SDS011;53960;51.826;5.850;2024-02-26T05:00:42;9.17;;;3.93;;
67053;SDS011;53960;51.826;5.850;2024-02-26T05:03:08;9.30;;;4.20;;
67053;SDS011;53960;51.826;5.850;2024-02-26T05:05:37;8.82;;;3.80;;
67053;SDS011;53960;51.826;5.850;2024-02-26T05:08:03;9.30;;;3.70;;
67053;SDS011;53960;51.826;5.850;2024-02-26T05:10:28;10.17;;;4.03;;
67053;SDS011;53960;51.826;5.850;2024-02-26T05:12:54;8.23;;;3.83;;
67053;SDS011;53960;51.826;5.850;2024-02-26T05:15:19;8.57;;;3.73;;
67053;SDS011;53960;51.826;5.850;2024-02-26T05:17:44;9.60;;;3.80;;
67053;SDS011;53960;51.826;5.850;2024-02-26T05:20:10;9.30;;;4.30;;
67053;SDS011;53960;51.826;5.850;2024-02-26T05:22:35;10.87;;;4.50;;
67053;SDS011;53960;51.826;5.850;2024-02-26T05:25:01;10.80;;;4.18;;
67053;SDS011;53960;51.826;5.850;2024-02-26T05:27:28;9.48;;;4.28;;
67053;SDS011;53960;51.826;5.850;2024-02-26T05:29:53;9.40;;;4.03;;
67053;SDS011;53960;51.826;5.850;2024-02-26T05:32:19;11.82;;;4.38;;
67053;SDS011;53960;51.826;5.850;2024-02-26T05:34:44;9.43;;;4.37;;
67053;SDS011;53960;51.826;5.850;2024-02-26T05:37:10;9.63;;;3.90;;
67053;SDS011;53960;51.826;5.850;2024-02-26T05:39:36;9.10;;;4.10;;
67053;SDS011;53960;51.826;5.850;2024-02-26T05:42:01;10.73;;;3.67;;
67053;SDS011;53960;51.826;5.850;2024-02-26T05:44:27;9.60;;;4.05;;
67053;SDS011;53960;51.826;5.850;2024-02-26T05:46:52;9.20;;;3.80;;
67053;SDS011;53960;51.826;5.850;2024-02-26T05:49:18;8.87;;;3.73;;
67053;SDS011;53960;51.826;5.850;2024-02-26T05:51:43;9.30;;;4.20;;
67053;SDS011;53960;51.826;5.850;2024-02-26T05:54:08;8.82;;;3.30;;
67053;SDS011;53960;51.826;5.850;2024-02-26T05:56:35;10.30;;;3.50;;
67053;SDS011;53960;51.826;5.850;2024-02-26T05:59:00;8.80;;;3.78;;
67053;SDS011;53960;51.826;5.850;2024-02-26T06:01:25;7.47;;;2.77;;
67053;SDS011;53960;51.826;5.850;2024-02-26T06:03:51;9.97;;;3.67;;
67053;SDS011;53960;51.826;5.850;2024-02-26T06:06:17;10.10;;;3.80;;
67053;SDS011;53960;51.826;5.850;2024-02-26T06:08:42;9.27;;;3.13;;
67053;SDS011;53960;51.826;5.850;2024-02-26T06:11:08;8.87;;;3.57;;
67053;SDS011;53960;51.826;5.850;2024-02-26T06:13:34;8.25;;;3.45;;
67053;SDS011;53960;51.826;5.850;2024-02-26T06:15:59;10.07;;;4.27;;
67053;SDS011;53960;51.826;5.850;2024-02-26T06:18:25;9.30;;;3.60;;
67053;SDS011;53960;51.826;5.850;2024-02-26T06:20:50;9.00;;;3.60;;
67053;SDS011;53960;51.826;5.850;2024-02-26T06:23:15;8.57;;;3.80;;
67053;SDS011;53960;51.826;5.850;2024-02-26T06:25:41;8.67;;;3.83;;
67053;SDS011;53960;51.826;5.850;2024-02-26T06:28:07;11.95;;;3.88;;
67053;SDS011;53960;51.826;5.850;2024-02-26T06:30:33;10.03;;;3.90;;
67053;SDS011;53960;51.826;5.850;2024-02-26T06:32:58;9.33;;;3.80;;
67053;SDS011;53960;51.826;5.850;2024-02-26T06:35:24;8.47;;;3.50;;
67053;SDS011;53960;51.826;5.850;2024-02-26T06:37:49;9.43;;;3.90;;
67053;SDS011;53960;51.826;5.850;2024-02-26T06:40:17;9.55;;;3.80;;
67053;SDS011;53960;51.826;5.850;2024-02-26T06:42:43;10.53;;;4.13;;
67053;SDS011;53960;51.826;5.850;2024-02-26T06:45:08;9.43;;;3.85;;
67053;SDS011;53960;51.826;5.850;2024-02-26T06:47:34;9.43;;;4.20;;
67053;SDS011;53960;51.826;5.850;2024-02-26T06:49:59;9.50;;;3.87;;
67053;SDS011;53960;51.826;5.850;2024-02-26T06:52:25;10.70;;;4.28;;
67053;SDS011;53960;51.826;5.850;2024-02-26T06:54:51;8.57;;;3.30;;
67053;SDS011;53960;51.826;5.850;2024-02-26T06:57:18;9.55;;;3.78;;
67053;SDS011;53960;51.826;5.850;2024-02-26T06:59:44;10.40;;;3.67;;
67053;SDS011;53960;51.826;5.850;2024-02-26T07:02:12;8.75;;;3.72;;
67053;SDS011;53960;51.826;5.850;2024-02-26T07:04:38;10.02;;;3.75;;
67053;SDS011;53960;51.826;5.850;2024-02-26T07:07:03;8.67;;;3.87;;
67053;SDS011;53960;51.826;5.850;2024-02-26T07:09:28;7.83;;;3.07;;
67053;SDS011;53960;51.826;5.850;2024-02-26T07:11:54;8.10;;;3.33;;
67053;SDS011;53960;51.826;5.850;2024-02-26T07:14:19;8.90;;;3.40;;
67053;SDS011;53960;51.826;5.850;2024-02-26T07:16:44;10.03;;;3.73;;
67053;SDS011;53960;51.826;5.850;2024-02-26T07:19:09;10.27;;;2.90;;
67053;SDS011;53960;51.826;5.850;2024-02-26T07:21:35;12.10;;;4.13;;
67053;SDS011;53960;51.826;5.850;2024-02-26T07:24:00;9.40;;;3.30;;
67053;SDS011;53960;51.826;5.850;2024-02-26T07:26:25;8.52;;;3.13;;
67053;SDS011;53960;51.826;5.850;2024-02-26T07:28:51;8.47;;;3.93;;
67053;SDS011;53960;51.826;5.850;2024-02-26T07:31:19;8.10;;;3.53;;
67053;SDS011;53960;51.826;5.850;2024-02-26T07:33:45;9.27;;;3.55;;
67053;SDS011;53960;51.826;5.850;2024-02-26T07:36:10;8.50;;;3.47;;
67053;SDS011;53960;51.826;5.850;2024-02-26T07:38:36;9.23;;;4.05;;
67053;SDS011;53960;51.826;5.850;2024-02-26T07:41:02;9.33;;;3.50;;
67053;SDS011;53960;51.826;5.850;2024-02-26T07:43:28;8.45;;;3.28;;
67053;SDS011;53960;51.826;5.850;2024-02-26T07:45:54;9.57;;;4.47;;
67053;SDS011;53960;51.826;5.850;2024-02-26T07:48:19;10.70;;;4.50;;
67053;SDS011;53960;51.826;5.850;2024-02-26T07:50:44;8.87;;;3.23;;
67053;SDS011;53960;51.826;5.850;2024-02-26T07:53:10;10.37;;;4.27;;
67053;SDS011;53960;51.826;5.850;2024-02-26T07:55:35;8.70;;;4.03;;
67053;SDS011;53960;51.826;5.850;2024-02-26T07:58:08;11.05;;;4.30;;
67053;SDS011;53960;51.826;5.850;2024-02-26T08:00:33;10.27;;;3.97;;
67053;SDS011;53960;51.826;5.850;2024-02-26T08:02:58;10.23;;;4.10;;
67053;SDS011;53960;51.826;5.850;2024-02-26T08:05:24;11.20;;;4.30;;
67053;SDS011;53960;51.826;5.850;2024-02-26T08:07:50;10.45;;;4.75;;
67053;SDS011;53960;51.826;5.850;2024-02-26T08:10:15;12.93;;;4.87;;
67053;SDS011;53960;51.826;5.850;2024-02-26T08:12:41;9.82;;;4.63;;
67053;SDS011;53960;51.826;5.850;2024-02-26T08:15:07;10.50;;;4.77;;
67053;SDS011;53960;51.826;5.850;2024-02-26T08:17:33;10.23;;;5.00;;
67053;SDS011;53960;51.826;5.850;2024-02-26T08:19:59;9.75;;;4.65;;
67053;SDS011;53960;51.826;5.850;2024-02-26T08:22:25;12.07;;;4.60;;
67053;SDS011;53960;51.826;5.850;2024-02-26T08:24:50;11.80;;;5.45;;
67053;SDS011;53960;51.826;5.850;2024-02-26T08:27:15;10.20;;;4.50;;
67053;SDS011;53960;51.826;5.850;2024-02-26T08:29:40;11.77;;;5.20;;
67053;SDS011;53960;51.826;5.850;2024-02-26T08:32:06;10.57;;;4.80;;
67053;SDS011;53960;51.826;5.850;2024-02-26T08:34:32;12.95;;;5.22;;
67053;SDS011;53960;51.826;5.850;2024-02-26T08:36:57;12.80;;;5.27;;
67053;SDS011;53960;51.826;5.850;2024-02-26T08:39:23;13.87;;;6.33;;
67053;SDS011;53960;51.826;5.850;2024-02-26T08:41:48;13.53;;;6.33;;
67053;SDS011;53960;51.826;5.850;2024-02-26T08:44:13;15.17;;;6.50;;
67053;SDS011;53960;51.826;5.850;2024-02-26T08:46:39;13.67;;;6.67;;
67053;SDS011;53960;51.826;5.850;2024-02-26T08:49:04;12.87;;;5.67;;
67053;SDS011;53960;51.826;5.850;2024-02-26T08:51:32;12.47;;;5.93;;
67053;SDS011;53960;51.826;5.850;2024-02-26T08:53:57;14.57;;;7.17;;
67053;SDS011;53960;51.826;5.850;2024-02-26T08:56:22;14.57;;;7.00;;
67053;SDS011;53960;51.826;5.850;2024-02-26T08:58:48;15.70;;;7.13;;
67053;SDS011;53960;51.826;5.850;2024-02-26T09:01:16;15.17;;;7.20;;
67053;SDS011;53960;51.826;5.850;2024-02-26T09:03:41;17.63;;;6.97;;
67053;SDS011;53960;51.826;5.850;2024-02-26T09:06:07;15.00;;;6.80;;
67053;SDS011;53960;51.826;5.850;2024-02-26T09:08:32;15.30;;;7.40;;
67053;SDS011;53960;51.826;5.850;2024-02-26T09:10:58;13.52;;;7.45;;
67053;SDS011;53960;51.826;5.850;2024-02-26T09:13:24;15.00;;;7.00;;
67053;SDS011;53960;51.826;5.850;2024-02-26T09:15:49;16.10;;;8.00;;
67053;SDS011;53960;51.826;5.850;2024-02-26T09:18:14;17.92;;;8.30;;
67053;SDS011;53960;51.826;5.850;2024-02-26T09:20:40;14.37;;;6.73;;
67053;SDS011;53960;51.826;5.850;2024-02-26T09:23:06;16.02;;;6.60;;
67053;SDS011;53960;51.826;5.850;2024-02-26T09:25:31;14.37;;;6.63;;
67053;SDS011;53960;51.826;5.850;2024-02-26T09:27:58;14.80;;;6.75;;
67053;SDS011;53960;51.826;5.850;2024-02-26T09:30:24;15.00;;;7.10;;
67053;SDS011;53960;51.826;5.850;2024-02-26T09:32:49;15.23;;;7.63;;
67053;SDS011;53960;51.826;5.850;2024-02-26T09:35:14;12.87;;;6.13;;
67053;SDS011;53960;51.826;5.850;2024-02-26T09:37:40;14.33;;;7.07;;
67053;SDS011;53960;51.826;5.850;2024-02-26T09:40:05;17.80;;;7.23;;
67053;SDS011;53960;51.826;5.850;2024-02-26T09:42:31;15.25;;;7.18;;
67053;SDS011;53960;51.826;5.850;2024-02-26T09:45:00;16.50;;;8.03;;
67053;SDS011;53960;51.826;5.850;2024-02-26T09:47:30;19.02;;;8.98;;
67053;SDS011;53960;51.826;5.850;2024-02-26T09:49:57;15.23;;;7.28;;
67053;SDS011;53960;51.826;5.850;2024-02-26T09:52:25;16.77;;;7.93;;
67053;SDS011;53960;51.826;5.850;2024-02-26T09:54:51;16.85;;;7.38;;
67053;SDS011;53960;51.826;5.850;2024-02-26T09:57:16;16.77;;;7.93;;
67053;SDS011;53960;51.826;5.850;2024-02-26T09:59:42;15.47;;;6.83;;
67053;SDS011;53960;51.826;5.850;2024-02-26T10:02:12;17.23;;;7.30;;
67053;SDS011;53960;51.826;5.850;2024-02-26T10:04:42;18.27;;;8.00;;
67053;SDS011;53960;51.826;5.850;2024-02-26T10:07:11;16.67;;;7.40;;
67053;SDS011;53960;51.826;5.850;2024-02-26T10:09:38;22.42;;;9.82;;
67053;SDS011;53960;51.826;5.850;2024-02-26T10:12:04;17.25;;;6.95;;
67053;SDS011;53960;51.826;5.850;2024-02-26T10:14:30;18.17;;;7.97;;
67053;SDS011;53960;51.826;5.850;2024-02-26T10:16:55;18.25;;;8.40;;
67053;SDS011;53960;51.826;5.850;2024-02-26T10:19:24;16.10;;;7.10;;
67053;SDS011;53960;51.826;5.850;2024-02-26T10:21:56;16.80;;;7.25;;
67053;SDS011;53960;51.826;5.850;2024-02-26T10:24:23;17.43;;;6.93;;
67053;SDS011;53960;51.826;5.850;2024-02-26T10:26:48;18.83;;;8.10;;
67053;SDS011;53960;51.826;5.850;2024-02-26T10:29:14;21.03;;;8.90;;
67053;SDS011;53960;51.826;5.850;2024-02-26T10:31:42;19.15;;;7.18;;
67053;SDS011;53960;51.826;5.850;2024-02-26T10:34:07;21.90;;;8.13;;
67053;SDS011;53960;51.826;5.850;2024-02-26T10:36:33;20.80;;;8.85;;
67053;SDS011;53960;51.826;5.850;2024-02-26T10:39:01;16.48;;;6.90;;
67053;SDS011;53960;51.826;5.850;2024-02-26T10:41:28;19.50;;;8.27;;
67053;SDS011;53960;51.826;5.850;2024-02-26T10:43:54;17.50;;;7.00;;
67053;SDS011;53960;51.826;5.850;2024-02-26T10:46:19;22.87;;;9.20;;
67053;SDS011;53960;51.826;5.850;2024-02-26T10:48:51;19.97;;;8.27;;
67053;SDS011;53960;51.826;5.850;2024-02-26T10:51:21;21.33;;;9.40;;
67053;SDS011;53960;51.826;5.850;2024-02-26T10:53:50;21.67;;;8.65;;
67053;SDS011;53960;51.826;5.850;2024-02-26T10:56:21;17.95;;;6.80;;
67053;SDS011;53960;51.826;5.850;2024-02-26T10:58:50;16.85;;;7.20;;
67053;SDS011;53960;51.826;5.850;2024-02-26T11:01:15;22.83;;;8.67;;
67053;SDS011;53960;51.826;5.850;2024-02-26T11:03:41;20.30;;;8.77;;
67053;SDS011;53960;51.826;5.850;2024-02-26T11:06:07;20.30;;;8.20;;
67053;SDS011;53960;51.826;5.850;2024-02-26T11:08:33;17.08;;;7.25;;
67053;SDS011;53960;51.826;5.850;2024-02-26T11:11:00;19.73;;;8.32;;
67053;SDS011;53960;51.826;5.850;2024-02-26T11:13:26;18.30;;;6.67;;
67053;SDS011;53960;51.826;5.850;2024-02-26T11:15:55;18.20;;;7.75;;
67053;SDS011;53960;51.826;5.850;2024-02-26T11:18:22;21.35;;;8.15;;
67053;SDS011;53960;51.826;5.850;2024-02-26T11:20:49;19.23;;;8.13;;
67053;SDS011;53960;51.826;5.850;2024-02-26T11:23:16;19.83;;;7.47;;
67053;SDS011;53960;51.826;5.850;2024-02-26T11:25:41;19.43;;;8.20;;
67053;SDS011;53960;51.826;5.850;2024-02-26T11:28:11;17.50;;;7.32;;
67053;SDS011;53960;51.826;5.850;2024-02-26T11:30:40;20.48;;;9.45;;
67053;SDS011;53960;51.826;5.850;2024-02-26T11:33:11;23.52;;;9.65;;
67053;SDS011;53960;51.826;5.850;2024-02-26T11:35:38;20.30;;;8.47;;
67053;SDS011;53960;51.826;5.850;2024-02-26T11:38:04;19.75;;;8.30;;
67053;SDS011;53960;51.826;5.850;2024-02-26T11:40:31;18.25;;;7.47;;
67053;SDS011;53960;51.826;5.850;2024-02-26T11:42:57;14.60;;;6.53;;
67053;SDS011;53960;51.826;5.850;2024-02-26T11:48:04;17.83;;;7.82;;
67053;SDS011;53960;51.826;5.850;2024-02-26T11:50:36;20.20;;;8.73;;
67053;SDS011;53960;51.826;5.850;2024-02-26T11:53:19;20.50;;;8.95;;
67053;SDS011;53960;51.826;5.850;2024-02-26T11:55:45;19.75;;;7.95;;
67053;SDS011;53960;51.826;5.850;2024-02-26T11:58:10;23.43;;;8.70;;
67053;SDS011;53960;51.826;5.850;2024-02-26T12:00:35;23.73;;;10.23;;
67053;SDS011;53960;51.826;5.850;2024-02-26T12:03:01;20.20;;;9.27;;
67053;SDS011;53960;51.826;5.850;2024-02-26T12:05:31;20.73;;;9.68;;
67053;SDS011;53960;51.826;5.850;2024-02-26T12:08:01;22.02;;;8.90;;
67053;SDS011;53960;51.826;5.850;2024-02-26T12:10:32;18.08;;;8.38;;
67053;SDS011;53960;51.826;5.850;2024-02-26T12:13:15;16.23;;;7.13;;
67053;SDS011;53960;51.826;5.850;2024-02-26T12:15:45;18.67;;;8.87;;
67053;SDS011;53960;51.826;5.850;2024-02-26T12:18:19;19.52;;;7.65;;
67053;SDS011;53960;51.826;5.850;2024-02-26T12:20:46;19.17;;;7.97;;
67053;SDS011;53960;51.826;5.850;2024-02-26T12:23:15;16.85;;;7.03;;
67053;SDS011;53960;51.826;5.850;2024-02-26T12:25:43;18.13;;;6.90;;
67053;SDS011;53960;51.826;5.850;2024-02-26T12:28:09;16.85;;;7.57;;
67053;SDS011;53960;51.826;5.850;2024-02-26T12:30:34;16.98;;;7.25;;
67053;SDS011;53960;51.826;5.850;2024-02-26T12:33:00;17.90;;;7.37;;
67053;SDS011;53960;51.826;5.850;2024-02-26T12:35:29;13.80;;;6.30;;
67053;SDS011;53960;51.826;5.850;2024-02-26T12:37:57;14.87;;;6.77;;
67053;SDS011;53960;51.826;5.850;2024-02-26T12:40:23;15.55;;;6.95;;
67053;SDS011;53960;51.826;5.850;2024-02-26T12:42:49;13.18;;;5.78;;
67053;SDS011;53960;51.826;5.850;2024-02-26T12:45:14;15.53;;;5.77;;
67053;SDS011;53960;51.826;5.850;2024-02-26T12:47:42;15.30;;;6.55;;
67053;SDS011;53960;51.826;5.850;2024-02-26T12:50:08;15.75;;;6.82;;
67053;SDS011;53960;51.826;5.850;2024-02-26T12:52:36;16.70;;;6.83;;
67053;SDS011;53960;51.826;5.850;2024-02-26T12:55:04;15.27;;;6.60;;
67053;SDS011;53960;51.826;5.850;2024-02-26T12:57:32;14.63;;;6.50;;
67053;SDS011;53960;51.826;5.850;2024-02-26T12:59:58;14.40;;;5.25;;
67053;SDS011;53960;51.826;5.850;2024-02-26T13:02:25;12.87;;;5.03;;
67053;SDS011;53960;51.826;5.850;2024-02-26T13:04:51;12.60;;;5.30;;
67053;SDS011;53960;51.826;5.850;2024-02-26T13:07:18;12.98;;;5.70;;
67053;SDS011;53960;51.826;5.850;2024-02-26T13:09:43;12.20;;;5.37;;
67053;SDS011;53960;51.826;5.850;2024-02-26T13:12:09;20.40;;;6.90;;
67053;SDS011;53960;51.826;5.850;2024-02-26T13:14:34;23.63;;;9.07;;
67053;SDS011;53960;51.826;5.850;2024-02-26T13:17:00;16.35;;;6.68;;
67053;SDS011;53960;51.826;5.850;2024-02-26T13:19:27;15.27;;;5.78;;
67053;SDS011;53960;51.826;5.850;2024-02-26T13:21:55;20.07;;;8.47;;
67053;SDS011;53960;51.826;5.850;2024-02-26T13:24:20;18.00;;;6.90;;
67053;SDS011;53960;51.826;5.850;2024-02-26T13:26:47;15.23;;;5.37;;
67053;SDS011;53960;51.826;5.850;2024-02-26T13:29:19;14.57;;;6.35;;
67053;SDS011;53960;51.826;5.850;2024-02-26T13:31:44;12.80;;;5.60;;
67053;SDS011;53960;51.826;5.850;2024-02-26T13:34:09;13.75;;;5.28;;
67053;SDS011;53960;51.826;5.850;2024-02-26T13:36:35;13.30;;;5.50;;
67053;SDS011;53960;51.826;5.850;2024-02-26T13:39:00;13.07;;;5.73;;
67053;SDS011;53960;51.826;5.850;2024-02-26T13:41:29;12.38;;;5.40;;
67053;SDS011;53960;51.826;5.850;2024-02-26T13:43:54;13.43;;;5.27;;
67053;SDS011;53960;51.826;5.850;2024-02-26T13:46:20;12.47;;;5.40;;
67053;SDS011;53960;51.826;5.850;2024-02-26T13:48:45;14.37;;;5.73;;
67053;SDS011;53960;51.826;5.850;2024-02-26T13:51:10;12.57;;;4.93;;
67053;SDS011;53960;51.826;5.850;2024-02-26T13:53:36;11.82;;;4.85;;
67053;SDS011;53960;51.826;5.850;2024-02-26T13:56:01;12.37;;;5.03;;
67053;SDS011;53960;51.826;5.850;2024-02-26T13:58:30;14.67;;;5.87;;
67053;SDS011;53960;51.826;5.850;2024-02-26T14:00:55;13.48;;;4.72;;
67053;SDS011;53960;51.826;5.850;2024-02-26T14:03:21;14.73;;;4.97;;
67053;SDS011;53960;51.826;5.850;2024-02-26T14:05:47;11.90;;;5.03;;
67053;SDS011;53960;51.826;5.850;2024-02-26T14:08:12;10.32;;;4.30;;
67053;SDS011;53960;51.826;5.850;2024-02-26T14:10:38;11.60;;;4.83;;
67053;SDS011;53960;51.826;5.850;2024-02-26T14:13:04;12.38;;;4.95;;
67053;SDS011;53960;51.826;5.850;2024-02-26T14:15:29;12.20;;;4.53;;
67053;SDS011;53960;51.826;5.850;2024-02-26T14:17:55;11.67;;;5.23;;
67053;SDS011;53960;51.826;5.850;2024-02-26T14:20:24;11.65;;;4.68;;
67053;SDS011;53960;51.826;5.850;2024-02-26T14:22:52;13.07;;;4.72;;
67053;SDS011;53960;51.826;5.850;2024-02-26T14:25:18;13.97;;;5.67;;
67053;SDS011;53960;51.826;5.850;2024-02-26T14:27:45;15.00;;;5.90;;
67053;SDS011;53960;51.826;5.850;2024-02-26T14:30:11;11.52;;;4.80;;
67053;SDS011;53960;51.826;5.850;2024-02-26T14:32:37;13.43;;;5.55;;
67053;SDS011;53960;51.826;5.850;2024-02-26T14:35:03;13.30;;;6.00;;
67053;SDS011;53960;51.826;5.850;2024-02-26T14:37:35;13.77;;;5.53;;